createdAt,value
2023-01-13T00:00:17.029Z,22.15
2023-01-13T00:02:49.858Z,21.74
2023-01-13T00:05:25.693Z,22.18
2023-01-13T00:07:57.993Z,22.70
2023-01-13T00:10:30.808Z,22.90
2023-01-13T00:13:09.191Z,23.49
2023-01-13T00:15:45.084Z,24.03
2023-01-13T00:18:21.154Z,24.08
2023-01-13T00:21:03.755Z,24.04
2023-01-13T00:23:40.073Z,23.67
2023-01-13T00:26:15.704Z,23.41
2023-01-13T00:28:48.362Z,23.84
2023-01-13T00:31:22.541Z,23.64
2023-01-13T00:33:53.089Z,24.43
2023-01-13T00:36:26.116Z,24.32
2023-01-13T00:38:56.406Z,24.33
2023-01-13T00:41:27.503Z,24.61
2023-01-13T00:44:00.796Z,24.49
2023-01-13T00:46:36.867Z,24.91
2023-01-13T00:49:07.327Z,24.80
2023-01-13T00:51:44.788Z,24.95
2023-01-13T00:54:19.686Z,24.75
2023-01-13T00:56:55.720Z,24.40
2023-01-13T00:59:29.605Z,24.51
2023-01-13T01:02:02.603Z,25.06
2023-01-13T01:04:32.830Z,24.58
2023-01-13T01:07:06.309Z,24.56
2023-01-13T01:09:39.591Z,24.49
2023-01-13T01:12:15.351Z,23.84
2023-01-13T01:14:48.425Z,23.37
2023-01-13T01:17:24.443Z,23.85
2023-01-13T01:19:56.900Z,24.02
2023-01-13T01:22:29.507Z,24.43
2023-01-13T01:25:00.772Z,24.71
2023-01-13T01:27:33.600Z,24.22
2023-01-13T01:30:09.830Z,23.96
2023-01-13T01:32:45.228Z,24.20
2023-01-13T01:35:18.610Z,23.87
2023-01-13T01:37:54.129Z,23.99
2023-01-13T01:40:28.974Z,24.12
2023-01-13T01:43:27.680Z,24.16
2023-01-13T01:46:06.902Z,23.82
2023-01-13T01:48:42.188Z,23.89
2023-01-13T01:51:18.147Z,23.89
2023-01-13T01:53:57.585Z,24.11
2023-01-13T01:56:33.191Z,23.78
2023-01-13T01:59:09.628Z,24.04
2023-01-13T02:01:38.571Z,23.70
2023-01-13T02:04:17.408Z,24.02
2023-01-13T02:06:53.814Z,24.40
2023-01-13T02:09:28.298Z,23.44
2023-01-13T02:12:19.864Z,23.50
2023-01-13T02:14:50.018Z,23.24
2023-01-13T02:17:20.838Z,23.05
2023-01-13T02:20:28.972Z,22.66
2023-01-13T02:23:59.223Z,21.80
2023-01-13T02:26:50.106Z,21.67
2023-01-13T02:29:57.421Z,21.55
2023-01-13T02:32:40.200Z,21.24
2023-01-13T02:35:16.884Z,20.33
2023-01-13T02:37:54.585Z,21.18
2023-01-13T02:40:27.161Z,21.03
2023-01-13T02:43:44.679Z,21.12
2023-01-13T02:46:22.421Z,21.45
2023-01-13T02:48:58.933Z,21.41
2023-01-13T02:51:35.583Z,21.97
2023-01-13T02:54:33.203Z,21.50
2023-01-13T02:57:13.103Z,21.11
2023-01-13T02:59:54.354Z,20.91
2023-01-13T03:02:30.870Z,21.36
2023-01-13T03:05:07.534Z,21.36
2023-01-13T03:08:10.676Z,21.05
2023-01-13T03:10:58.947Z,20.31
2023-01-13T03:13:48.724Z,20.19
2023-01-13T03:16:39.012Z,21.76
2023-01-13T03:19:30.407Z,20.72
2023-01-13T03:22:15.323Z,21.34
2023-01-13T03:24:55.035Z,20.73
2023-01-13T03:27:43.681Z,19.96
2023-01-13T03:30:33.289Z,20.41
2023-01-13T03:33:15.892Z,20.73
2023-01-13T03:35:52.868Z,20.30
2023-01-13T03:38:43.356Z,21.43
2023-01-13T03:41:21.928Z,21.70
2023-01-13T03:44:17.589Z,21.78
2023-01-13T03:46:55.985Z,22.65
2023-01-13T03:49:31.523Z,23.73
2023-01-13T03:52:08.997Z,22.97
2023-01-13T03:54:51.981Z,23.40
2023-01-13T03:57:29.981Z,23.18
2023-01-13T04:00:09.485Z,22.68
2023-01-13T04:02:55.593Z,22.51
2023-01-13T04:05:32.801Z,22.90
2023-01-13T04:08:12.554Z,22.78
2023-01-13T04:11:07.835Z,23.39
2023-01-13T04:13:47.534Z,23.90
2023-01-13T04:16:23.697Z,22.91
2023-01-13T04:18:51.369Z,23.29
2023-01-13T04:21:29.568Z,22.86
2023-01-13T04:24:03.122Z,22.65
2023-01-13T04:26:41.424Z,22.86
2023-01-13T04:29:13.080Z,23.01
2023-01-13T04:31:53.424Z,23.03
2023-01-13T04:34:23.794Z,22.93
2023-01-13T04:36:55.243Z,22.77
2023-01-13T04:39:28.543Z,22.42
2023-01-13T04:42:07.681Z,23.22
2023-01-13T04:44:44.085Z,22.75
2023-01-13T04:47:19.646Z,22.49
2023-01-13T04:49:50.072Z,22.17
2023-01-13T04:52:20.757Z,23.18
2023-01-13T04:54:56.828Z,23.23
2023-01-13T04:57:31.295Z,23.08
2023-01-13T05:00:05.523Z,23.31
2023-01-13T05:02:44.076Z,23.28
2023-01-13T05:05:17.926Z,23.30
2023-01-13T05:07:45.936Z,23.31
2023-01-13T05:10:18.936Z,22.92
2023-01-13T05:13:14.154Z,22.78
2023-01-13T05:16:15.145Z,22.75
2023-01-13T05:19:01.945Z,22.94
2023-01-13T05:21:56.322Z,22.54
2023-01-13T05:24:50.807Z,22.56
2023-01-13T05:27:26.948Z,22.87
2023-01-13T05:30:06.798Z,22.86
2023-01-13T05:32:39.879Z,23.01
2023-01-13T05:35:16.009Z,22.71
2023-01-13T05:38:02.711Z,23.62
2023-01-13T05:40:52.484Z,23.65
2023-01-13T05:43:27.113Z,23.65
2023-01-13T05:46:26.139Z,23.93
2023-01-13T05:48:59.881Z,23.58
2023-01-13T05:51:30.723Z,23.63
2023-01-13T05:54:04.201Z,23.28
2023-01-13T05:56:39.640Z,23.56
2023-01-13T05:59:16.008Z,23.73
2023-01-13T06:01:48.788Z,23.25
2023-01-13T06:04:21.660Z,23.21
2023-01-13T06:06:55.988Z,22.77
2023-01-13T06:09:32.304Z,22.76
2023-01-13T06:12:02.793Z,23.47
2023-01-13T06:14:42.021Z,22.93
2023-01-13T06:17:14.689Z,23.32
2023-01-13T06:19:47.828Z,22.75
2023-01-13T06:22:35.591Z,23.25
2023-01-13T06:25:21.455Z,23.09
2023-01-13T06:28:03.310Z,23.31
2023-01-13T06:30:45.567Z,22.81
2023-01-13T06:33:28.060Z,22.96
2023-01-13T06:36:07.887Z,23.01
2023-01-13T06:38:50.960Z,22.90
2023-01-13T06:41:41.746Z,22.23
2023-01-13T06:44:18.825Z,22.40
2023-01-13T06:46:59.653Z,22.65
2023-01-13T06:49:37.567Z,23.39
2023-01-13T06:52:05.306Z,22.97
2023-01-13T06:54:39.212Z,23.06
2023-01-13T06:57:06.568Z,22.85
2023-01-13T06:59:39.093Z,23.05
2023-01-13T07:02:10.309Z,23.30
2023-01-13T07:04:37.842Z,22.95
2023-01-13T07:07:11.530Z,23.25
2023-01-13T07:09:45.756Z,23.14
2023-01-13T07:12:18.616Z,22.86
2023-01-13T07:15:08.131Z,23.68
2023-01-13T07:17:41.272Z,22.63
2023-01-13T07:20:14.655Z,23.30
2023-01-13T07:22:46.079Z,23.73
2023-01-13T07:25:24.978Z,24.39
2023-01-13T07:28:00.383Z,24.76
2023-01-13T07:30:28.541Z,25.28
2023-01-13T07:33:04.755Z,26.20
2023-01-13T07:35:38.398Z,26.60
2023-01-13T07:38:17.281Z,26.63
2023-01-13T07:40:53.299Z,27.37
2023-01-13T07:43:32.290Z,28.12
2023-01-13T07:46:05.853Z,28.23
2023-01-13T07:48:38.122Z,28.54
2023-01-13T07:51:15.826Z,28.16
2023-01-13T07:53:52.512Z,28.09
2023-01-13T07:56:25.864Z,27.52
2023-01-13T07:58:59.376Z,27.48
2023-01-13T08:01:33.676Z,28.20
2023-01-13T08:04:06.684Z,28.83
2023-01-13T08:06:48.034Z,29.00
2023-01-13T08:09:21.212Z,29.43
2023-01-13T08:12:08.979Z,29.14
2023-01-13T08:14:39.753Z,28.24
2023-01-13T08:17:13.659Z,28.11
2023-01-13T08:19:52.199Z,28.08
2023-01-13T08:22:23.447Z,28.16
2023-01-13T08:25:05.526Z,28.29
2023-01-13T08:27:38.799Z,28.82
2023-01-13T08:30:13.053Z,29.52
2023-01-13T08:32:46.927Z,29.91
2023-01-13T08:35:18.860Z,30.12
2023-01-13T08:38:01.597Z,30.43
2023-01-13T08:40:34.793Z,30.68
2023-01-13T08:43:06.499Z,30.98
2023-01-13T08:45:47.088Z,31.38
2023-01-13T08:48:20.464Z,31.20
2023-01-13T08:51:17.282Z,31.44
2023-01-13T08:53:49.661Z,31.89
2023-01-13T08:56:20.597Z,31.69
2023-01-13T08:58:51.023Z,31.88
2023-01-13T09:01:23.470Z,31.58
2023-01-13T09:03:59.284Z,31.61
2023-01-13T09:06:30.660Z,31.50
2023-01-13T09:09:03.654Z,31.21
2023-01-13T09:11:56.489Z,30.91
2023-01-13T09:14:34.101Z,30.63
2023-01-13T09:17:06.455Z,30.19
2023-01-13T09:19:39.745Z,30.23
2023-01-13T09:22:10.233Z,30.52
2023-01-13T09:24:43.630Z,30.30
2023-01-13T09:27:12.887Z,30.33
2023-01-13T09:29:46.155Z,29.99
2023-01-13T09:32:16.721Z,29.66
2023-01-13T09:35:03.073Z,28.59
2023-01-13T09:37:38.223Z,27.73
2023-01-13T09:40:25.934Z,26.50
2023-01-13T09:43:39.612Z,26.74
2023-01-13T09:46:41.071Z,27.52
2023-01-13T09:49:30.728Z,27.86
2023-01-13T09:52:04.690Z,28.83
2023-01-13T09:54:41.427Z,29.25
2023-01-13T09:57:17.225Z,29.23
2023-01-13T09:59:48.419Z,29.49
2023-01-13T10:02:43.906Z,28.25
2023-01-13T10:05:36.027Z,27.86
2023-01-13T10:08:43.108Z,27.81
2023-01-13T10:11:36.283Z,28.20
2023-01-13T10:14:18.688Z,28.24
2023-01-13T10:17:25.405Z,28.49
2023-01-13T10:20:03.127Z,28.27
2023-01-13T10:22:43.844Z,28.92
2023-01-13T10:25:36.010Z,28.56
2023-01-13T10:28:25.472Z,29.23
2023-01-13T10:31:01.382Z,29.50
2023-01-13T10:33:37.273Z,29.83
2023-01-13T10:36:23.124Z,30.85
2023-01-13T10:39:03.639Z,30.68
2023-01-13T10:41:37.546Z,30.59
2023-01-13T10:44:24.406Z,30.19
2023-01-13T10:47:01.016Z,30.75
2023-01-13T10:49:44.854Z,30.89
2023-01-13T10:52:36.567Z,31.15
2023-01-13T10:55:33.929Z,31.57
2023-01-13T10:58:21.779Z,31.84
2023-01-13T11:01:01.430Z,32.02
2023-01-13T11:03:44.530Z,32.30
2023-01-13T11:06:27.916Z,32.49
2023-01-13T11:09:03.188Z,32.74
2023-01-13T11:11:44.958Z,33.09
2023-01-13T11:14:36.410Z,33.11
2023-01-13T11:17:27.984Z,33.35
2023-01-13T11:20:13.182Z,33.29
2023-01-13T11:22:51.641Z,33.21
2023-01-13T11:25:35.434Z,33.47
2023-01-13T11:28:11.968Z,33.43
2023-01-13T11:30:55.570Z,33.48
2023-01-13T11:33:33.535Z,33.52
2023-01-13T11:36:04.052Z,33.54
2023-01-13T11:38:43.188Z,33.46
2023-01-13T11:41:39.155Z,33.41
2023-01-13T11:44:30.182Z,33.39
2023-01-13T11:47:01.989Z,33.61
2023-01-13T11:49:34.131Z,33.43
2023-01-13T11:52:18.766Z,33.56
2023-01-13T11:55:17.093Z,33.62
2023-01-13T11:58:22.167Z,33.63
2023-01-13T12:01:05.743Z,33.48
2023-01-13T12:03:46.353Z,33.63
2023-01-13T12:06:33.240Z,33.67
2023-01-13T12:09:18.463Z,33.79
2023-01-13T12:12:07.648Z,33.75
2023-01-13T12:15:18.567Z,33.54
2023-01-13T12:18:03.542Z,33.86
2023-01-13T12:20:37.335Z,33.63
2023-01-13T12:23:15.742Z,33.40
2023-01-13T12:25:54.207Z,33.45
2023-01-13T12:28:43.469Z,33.74
2023-01-13T12:31:19.042Z,33.70
2023-01-13T12:34:06.336Z,33.71
2023-01-13T12:36:58.694Z,33.69
2023-01-13T12:39:37.702Z,33.78
2023-01-13T12:42:40.669Z,33.53
2023-01-13T12:45:11.264Z,33.63
2023-01-13T12:47:45.682Z,33.44
2023-01-13T12:50:22.521Z,33.80
2023-01-13T12:52:51.574Z,33.70
2023-01-13T12:55:36.964Z,33.75
2023-01-13T12:58:04.820Z,33.54
2023-01-13T13:00:42.336Z,33.83
2023-01-13T13:03:13.919Z,33.61
2023-01-13T13:06:13.908Z,33.79
2023-01-13T13:09:18.707Z,33.70
2023-01-13T13:11:58.443Z,33.84
2023-01-13T13:14:40.551Z,33.76
2023-01-13T13:17:33.978Z,33.81
2023-01-13T13:20:21.536Z,33.65
2023-01-13T13:22:54.316Z,33.71
2023-01-13T13:25:26.466Z,33.84
2023-01-13T13:28:12.127Z,33.77
2023-01-13T13:30:51.842Z,33.84
2023-01-13T13:33:50.969Z,33.83
2023-01-13T13:36:38.892Z,33.96
2023-01-13T13:39:39.856Z,33.72
2023-01-13T13:42:38.181Z,34.00
2023-01-13T13:45:37.421Z,33.89
2023-01-13T13:48:34.628Z,33.72
2023-01-13T13:51:40.179Z,33.95
2023-01-13T13:54:20.730Z,33.90
2023-01-13T13:56:54.268Z,34.07
2023-01-13T13:59:33.829Z,33.93
2023-01-13T14:02:03.815Z,34.01
2023-01-13T14:04:37.409Z,34.16
2023-01-13T14:07:18.427Z,34.00
2023-01-13T14:09:54.528Z,34.26
2023-01-13T14:12:30.991Z,33.90
2023-01-13T14:15:03.678Z,34.13
2023-01-13T14:17:34.016Z,33.99
2023-01-13T14:20:14.772Z,33.99
2023-01-13T14:22:51.055Z,34.15
2023-01-13T14:25:31.098Z,34.18
2023-01-13T14:28:25.695Z,34.31
2023-01-13T14:30:57.360Z,34.30
2023-01-13T14:33:38.870Z,34.38
2023-01-13T14:36:13.827Z,34.62
2023-01-13T14:38:43.942Z,34.22
2023-01-13T14:41:15.977Z,34.59
2023-01-13T14:43:46.552Z,34.46
2023-01-13T14:46:15.441Z,34.67
2023-01-13T14:48:47.223Z,34.45
2023-01-13T14:51:28.442Z,34.70
2023-01-13T14:53:59.905Z,34.54
2023-01-13T14:56:43.880Z,34.47
2023-01-13T14:59:44.921Z,34.37
2023-01-13T15:02:28.898Z,34.53
2023-01-13T15:05:18.768Z,34.28
2023-01-13T15:07:57.532Z,34.36
2023-01-13T15:10:42.594Z,34.43
2023-01-13T15:13:28.842Z,34.35
2023-01-13T15:16:00.494Z,34.36
2023-01-13T15:18:30.732Z,34.20
2023-01-13T15:21:01.753Z,34.27
2023-01-13T15:23:41.218Z,34.38
2023-01-13T15:26:27.458Z,34.24
2023-01-13T15:29:08.409Z,34.27
2023-01-13T15:31:42.685Z,34.36
2023-01-13T15:34:10.493Z,34.28
2023-01-13T15:36:41.140Z,34.45
2023-01-13T15:39:17.938Z,34.49
2023-01-13T15:42:04.453Z,33.63
2023-01-13T15:44:51.723Z,33.24
2023-01-13T15:47:23.641Z,32.53
2023-01-13T15:49:57.654Z,32.73
2023-01-13T15:52:29.133Z,31.67
2023-01-13T15:55:05.099Z,31.08
2023-01-13T15:57:44.060Z,31.09
2023-01-13T16:00:22.009Z,30.65
2023-01-13T16:02:53.082Z,29.95
2023-01-13T16:05:29.352Z,29.91
2023-01-13T16:07:58.432Z,30.29
2023-01-13T16:10:36.878Z,30.88
2023-01-13T16:13:04.696Z,30.70
2023-01-13T16:15:44.816Z,30.85
2023-01-13T16:18:26.446Z,30.43
2023-01-13T16:20:57.101Z,30.27
2023-01-13T16:23:27.199Z,29.83
2023-01-13T16:25:58.264Z,30.49
2023-01-13T16:28:28.272Z,31.01
2023-01-13T16:30:57.035Z,29.92
2023-01-13T16:33:24.996Z,30.31
2023-01-13T16:36:10.630Z,29.74
2023-01-13T16:38:46.914Z,29.99
